Time;durP1;ratioP1;P1;durP2;ratioP2;P2;SDS_P1;SDS_P2;PMS_P1;PMS_P2;Temp;Humidity;BMP_temperature;BMP_pressure;BME280_temperature;BME280_humidity;BME280_pressure;Samples;Min_cycle;Max_cycle;Signal;HPM_P1;HPM_P2
2022/02/22 05:06:47;;;;;;;;;58.50;47.25;;;;;;;;6024808;39;10000448;-52
2022/02/22 10:14:49;;;;;;;;;51.25;41.75;;;;;;;;6537313;36;14891;-57
2022/02/22 10:20:53;;;;;;;;;50.75;43.00;;;;;;;;6499907;31;9002;-56
2022/02/22 10:27:06;;;;;;;;;50.75;43.50;;;;;;;;6500025;31;8902;-53
2022/02/22 10:33:22;;;;;;;;;48.50;42.00;;;;;;;;6499213;38;9032;-57
2022/02/22 10:39:26;;;;;;;;;41.75;36.50;;;;;;;;6499695;38;8906;-56
2022/02/22 10:45:29;;;;;;;;;6.25;5.50;;;;;;;;6499572;31;8883;-56
2022/02/22 10:51:39;;;;;;;;;41.25;37.50;;;;;;;;6498206;39;8970;-57
2022/02/22 10:57:41;;;;;;;;;51.00;43.25;;;;;;;;6604559;31;12503;-57
2022/02/22 11:03:44;;;;;;;;;46.50;40.25;;;;;;;;6560086;36;77172;-56
2022/02/22 11:09:49;;;;;;;;;37.25;36.00;;;;;;;;6490477;46;9005;-56
2022/02/22 11:15:52;;;;;;;;;41.00;36.50;;;;;;;;6490361;39;8958;-57
2022/02/22 11:22:07;;;;;;;;;46.75;42.00;;;;;;;;6489136;46;8935;-55
2022/02/22 11:28:13;;;;;;;;;44.75;36.75;;;;;;;;6489513;46;8910;-56
2022/02/22 11:34:16;;;;;;;;;42.25;37.25;;;;;;;;6488384;39;9688;-52
2022/02/22 11:40:27;;;;;;;;;41.75;37.75;;;;;;;;6488208;31;8928;-54
2022/02/22 11:46:54;;;;;;;;;33.50;32.25;;;;;;;;6488902;31;8992;-54
2022/02/22 11:52:56;;;;;;;;;38.75;35.00;;;;;;;;6486398;31;9633;-54
2022/02/22 11:58:58;;;;;;;;;33.75;32.25;;;;;;;;6489346;39;8907;-54
2022/02/22 12:05:21;;;;;;;;;35.25;33.25;;;;;;;;6487402;31;8958;-53
2022/02/22 12:11:25;;;;;;;;;40.25;32.75;;;;;;;;6488975;39;8896;-53
2022/02/22 12:17:27;;;;;;;;;46.25;40.75;;;;;;;;6489700;39;9673;-56
2022/02/22 12:23:32;;;;;;;;;47.00;37.00;;;;;;;;6489299;31;8935;-52
2022/02/22 12:29:35;;;;;;;;;45.00;38.50;;;;;;;;6487942;31;8908;-55
2022/02/22 12:35:41;;;;;;;;;50.00;42.00;;;;;;;;6488560;31;8911;-53
2022/02/22 12:41:45;;;;;;;;;72.00;57.50;;;;;;;;6489122;39;8958;-55
2022/02/22 12:47:47;;;;;;;;;61.50;49.25;;;;;;;;6488142;46;8927;-53
2022/02/22 12:54:02;;;;;;;;;51.75;40.75;;;;;;;;6523159;36;11288;-52
2022/02/22 13:00:06;;;;;;;;;49.50;42.75;;;;;;;;6484325;46;8922;-57
2022/02/22 13:06:11;;;;;;;;;48.75;38.75;;;;;;;;6487630;31;8992;-54
2022/02/22 13:12:19;;;;;;;;;38.00;34.75;;;;;;;;6488136;31;8918;-53
2022/02/22 13:18:25;;;;;;;;;33.25;31.50;;;;;;;;6486999;31;9007;-52
2022/02/22 13:24:28;;;;;;;;;41.25;35.25;;;;;;;;6489072;39;9011;-54
2022/02/22 13:30:46;;;;;;;;;38.75;34.00;;;;;;;;6487359;31;8923;-53
2022/02/22 13:37:10;;;;;;;;;32.00;31.25;;;;;;;;6487234;31;9061;-54
2022/02/22 13:43:14;;;;;;;;;34.00;32.25;;;;;;;;6488647;39;8943;-54
2022/02/22 13:49:19;;;;;;;;;32.00;32.00;;;;;;;;6487465;31;8914;-52
2022/02/22 13:55:22;;;;;;;;;27.50;26.75;;;;;;;;6489188;39;8876;-53
2022/02/22 14:01:24;;;;;;;;;23.50;22.25;;;;;;;;6488808;39;8954;-53
2022/02/22 14:07:26;;;;;;;;;31.50;28.75;;;;;;;;6489604;31;8915;-53
2022/02/22 14:13:35;;;;;;;;;41.50;38.75;;;;;;;;6490270;47;8981;-55
2022/02/22 14:20:00;;;;;;;;;34.00;31.50;;;;;;;;6489236;39;8948;-53
2022/02/22 14:26:03;;;;;;;;;26.25;23.75;;;;;;;;6489976;39;9007;-54
2022/02/22 14:32:06;;;;;;;;;30.25;27.00;;;;;;;;6491023;31;8983;-51
2022/02/22 14:38:08;;;;;;;;;29.25;29.00;;;;;;;;6492171;39;8929;-50
2022/02/22 14:44:13;;;;;;;;;34.00;30.00;;;;;;;;6490033;31;8971;-52
2022/02/22 14:50:17;;;;;;;;;35.25;32.75;;;;;;;;6491529;31;8953;-53
2022/02/22 14:56:21;;;;;;;;;36.25;35.00;;;;;;;;6491557;39;8974;-56
2022/02/22 15:02:23;;;;;;;;;27.50;26.50;;;;;;;;6491549;46;8945;-55
2022/02/22 15:08:25;;;;;;;;;31.00;28.25;;;;;;;;6490958;39;8976;-55
2022/02/22 15:14:33;;;;;;;;;34.00;32.25;;;;;;;;6491078;31;8936;-53
2022/02/22 15:20:38;;;;;;;;;29.75;27.00;;;;;;;;6489705;46;8968;-53
2022/02/22 15:26:40;;;;;;;;;20.00;17.75;;;;;;;;6492385;46;8914;-55
2022/02/22 15:32:43;;;;;;;;;31.00;27.75;;;;;;;;6492478;31;8964;-57
2022/02/22 15:38:45;;;;;;;;;33.25;32.25;;;;;;;;6492873;39;8887;-54
2022/02/22 15:44:47;;;;;;;;;34.00;31.00;;;;;;;;6491932;46;9971;-54
2022/02/22 15:50:49;;;;;;;;;36.00;34.25;;;;;;;;6492794;31;8888;-55
2022/02/22 15:56:52;;;;;;;;;38.25;35.25;;;;;;;;6492055;31;8927;-55
2022/02/22 16:02:55;;;;;;;;;39.50;35.75;;;;;;;;6491650;46;8913;-55
2022/02/22 16:08:57;;;;;;;;;37.50;36.00;;;;;;;;6492405;39;9552;-54
2022/02/22 16:15:00;;;;;;;;;34.75;34.75;;;;;;;;6491885;39;8894;-51
2022/02/22 16:21:02;;;;;;;;;35.00;32.67;;;;;;;;6492020;39;9515;-52
2022/02/22 16:27:05;;;;;;;;;48.00;37.00;;;;;;;;6491765;39;8967;-52
2022/02/22 16:33:08;;;;;;;;;38.25;31.75;;;;;;;;6490615;39;8963;-55
2022/02/22 16:39:11;;;;;;;;;33.00;31.00;;;;;;;;6491533;31;8972;-52
2022/02/22 16:45:14;;;;;;;;;35.50;34.25;;;;;;;;6492181;39;8924;-55
2022/02/22 16:51:21;;;;;;;;;34.50;31.25;;;;;;;;6491339;46;8923;-51
2022/02/22 16:57:23;;;;;;;;;36.25;32.00;;;;;;;;6491786;39;8879;-54
2022/02/22 17:03:26;;;;;;;;;33.50;33.50;;;;;;;;6490354;31;8998;-51
2022/02/22 17:09:30;;;;;;;;;33.75;31.75;;;;;;;;6491891;39;8947;-52
2022/02/22 17:15:33;;;;;;;;;28.75;28.00;;;;;;;;6489677;39;8953;-53
2022/02/22 17:21:35;;;;;;;;;40.25;37.00;;;;;;;;6490225;39;8957;-53
2022/02/22 17:27:39;;;;;;;;;42.50;37.00;;;;;;;;6491390;39;8959;-54
2022/02/22 17:33:42;;;;;;;;;39.00;36.50;;;;;;;;6490006;39;9049;-52
2022/02/22 17:39:44;;;;;;;;;33.75;32.25;;;;;;;;6490491;47;8954;-54
2022/02/22 17:45:47;;;;;;;;;43.25;38.75;;;;;;;;6488603;47;8955;-53
2022/02/22 17:51:49;;;;;;;;;42.75;40.50;;;;;;;;6491638;39;8920;-53
2022/02/22 17:57:51;;;;;;;;;46.00;41.00;;;;;;;;6491503;31;8952;-50
2022/02/22 18:03:56;;;;;;;;;41.25;37.75;;;;;;;;6491936;39;9548;-54
2022/02/22 18:10:00;;;;;;;;;43.00;37.50;;;;;;;;6493095;46;9009;-56
2022/02/22 18:16:02;;;;;;;;;45.75;40.25;;;;;;;;6492793;46;8944;-56
2022/02/22 18:22:04;;;;;;;;;44.25;42.00;;;;;;;;6493153;39;8969;-52
2022/02/22 18:28:06;;;;;;;;;48.75;43.00;;;;;;;;6493638;39;8865;-51
2022/02/22 18:34:10;;;;;;;;;56.00;46.50;;;;;;;;6493538;31;8919;-52
2022/02/22 18:40:12;;;;;;;;;45.50;42.00;;;;;;;;6492886;46;8916;-52
2022/02/22 18:46:15;;;;;;;;;57.50;46.25;;;;;;;;6492200;39;8868;-54
2022/02/22 18:52:18;;;;;;;;;56.00;47.75;;;;;;;;6492200;46;8874;-55
2022/02/22 18:58:20;;;;;;;;;53.00;40.25;;;;;;;;6491583;46;8891;-54
2022/02/22 19:04:22;;;;;;;;;52.50;45.50;;;;;;;;6492470;46;8910;-56
2022/02/22 19:10:24;;;;;;;;;48.00;40.75;;;;;;;;6492640;39;8986;-53
2022/02/22 19:16:28;;;;;;;;;51.00;43.75;;;;;;;;6492291;39;8865;-53
2022/02/22 19:22:31;;;;;;;;;46.50;41.50;;;;;;;;6492662;39;9558;-56
2022/02/22 19:28:34;;;;;;;;;40.00;39.00;;;;;;;;6493723;39;8857;-54
2022/02/22 19:34:39;;;;;;;;;59.75;44.75;;;;;;;;6492008;39;8924;-54
2022/02/22 19:40:41;;;;;;;;;47.00;42.00;;;;;;;;6493368;31;8933;-54
2022/02/22 19:46:44;;;;;;;;;54.00;43.50;;;;;;;;6492574;39;8872;-54
2022/02/22 19:52:46;;;;;;;;;54.50;45.25;;;;;;;;6492371;39;8857;-52
2022/02/22 19:58:48;;;;;;;;;56.25;43.75;;;;;;;;6492367;39;8898;-56
2022/02/22 20:04:55;;;;;;;;;51.00;42.50;;;;;;;;6491598;39;8913;-51
2022/02/22 20:11:01;;;;;;;;;62.00;47.50;;;;;;;;6492409;39;8955;-51
2022/02/22 20:17:05;;;;;;;;;46.25;42.75;;;;;;;;6492665;31;8881;-53
2022/02/22 20:23:07;;;;;;;;;51.50;42.50;;;;;;;;6491555;46;8875;-54
2022/02/22 20:29:11;;;;;;;;;49.00;43.00;;;;;;;;6492692;39;8953;-52
2022/02/22 20:35:13;;;;;;;;;55.25;45.00;;;;;;;;6492763;39;8919;-52
2022/02/22 20:41:15;;;;;;;;;51.50;44.00;;;;;;;;6492076;39;8893;-54
2022/02/22 20:47:21;;;;;;;;;53.00;45.25;;;;;;;;6491221;39;8871;-53
2022/02/22 20:53:24;;;;;;;;;53.75;44.50;;;;;;;;6491749;39;8924;-54
2022/02/22 20:59:26;;;;;;;;;51.50;44.50;;;;;;;;6492306;39;8903;-55
2022/02/22 21:05:28;;;;;;;;;50.50;42.75;;;;;;;;6491398;39;9583;-55
2022/02/22 21:11:33;;;;;;;;;46.75;42.75;;;;;;;;6491426;39;8927;-56
2022/02/22 21:17:36;;;;;;;;;53.50;46.00;;;;;;;;6491542;39;8888;-55
2022/02/22 21:23:40;;;;;;;;;51.00;46.75;;;;;;;;6491288;39;9660;-52
2022/02/22 21:29:44;;;;;;;;;51.50;45.75;;;;;;;;6491691;31;8885;-51
2022/02/22 21:35:47;;;;;;;;;51.50;43.25;;;;;;;;6490943;46;8920;-52
2022/02/22 21:41:49;;;;;;;;;48.75;43.00;;;;;;;;6492493;31;8882;-56
2022/02/22 21:47:51;;;;;;;;;44.75;42.00;;;;;;;;6492045;39;9526;-55
2022/02/22 21:53:54;;;;;;;;;50.00;40.50;;;;;;;;6490670;47;8865;-51
2022/02/22 21:59:56;;;;;;;;;43.25;38.75;;;;;;;;6490851;43;8867;-56
2022/02/22 22:05:59;;;;;;;;;47.00;43.25;;;;;;;;6491201;39;8889;-56
2022/02/22 22:12:03;;;;;;;;;59.00;44.50;;;;;;;;6491048;39;9594;-52
2022/02/22 22:18:06;;;;;;;;;57.25;47.00;;;;;;;;6489667;39;8904;-53
2022/02/22 22:24:10;;;;;;;;;54.25;45.25;;;;;;;;6488964;44;8928;-53
2022/02/22 22:30:13;;;;;;;;;59.00;47.50;;;;;;;;6489646;39;9576;-51
2022/02/22 22:36:16;;;;;;;;;56.00;46.25;;;;;;;;6490511;31;8946;-53
2022/02/22 22:42:18;;;;;;;;;51.50;40.00;;;;;;;;6489495;39;9561;-52
2022/02/22 22:48:20;;;;;;;;;65.75;51.75;;;;;;;;6489761;39;8900;-54
2022/02/22 22:54:24;;;;;;;;;62.25;47.50;;;;;;;;6491738;31;8857;-52
2022/02/22 23:00:28;;;;;;;;;67.75;51.00;;;;;;;;6492133;39;8872;-53
2022/02/22 23:19:15;;;;;;;;;59.50;50.75;;;;;;;;6490726;39;8960;-53
2022/02/22 23:25:17;;;;;;;;;56.75;47.50;;;;;;;;6491537;31;9085;-54
2022/02/22 23:31:22;;;;;;;;;54.75;47.00;;;;;;;;6491219;31;9645;-51
2022/02/22 23:37:25;;;;;;;;;59.25;49.75;;;;;;;;6490304;46;8880;-54
2022/02/22 23:43:27;;;;;;;;;60.50;47.75;;;;;;;;6491220;31;8925;-56
2022/02/22 23:49:29;;;;;;;;;48.00;44.25;;;;;;;;6490620;46;8847;-54
2022/02/22 23:55:32;;;;;;;;;56.00;47.75;;;;;;;;6491600;39;8853;-53
